sensor_id;sensor_type;location;lat;lon;timestamp;P1;durP1;ratioP1;P2;durP2;ratioP2
57846;SDS011;43675;50.030;21.952;2023-02-28T00:02:04;48.40;;;36.90;;
57846;SDS011;43675;50.030;21.952;2023-02-28T00:04:31;52.20;;;38.00;;
57846;SDS011;43675;50.030;21.952;2023-02-28T00:06:57;50.70;;;37.70;;
57846;SDS011;43675;50.030;21.952;2023-02-28T00:09:24;51.40;;;38.80;;
57846;SDS011;43675;50.030;21.952;2023-02-28T00:11:50;49.00;;;37.50;;
57846;SDS011;43675;50.030;21.952;2023-02-28T00:14:17;55.40;;;40.40;;
57846;SDS011;43675;50.030;21.952;2023-02-28T00:16:43;51.40;;;38.90;;
57846;SDS011;43675;50.030;21.952;2023-02-28T00:19:10;60.30;;;40.60;;
57846;SDS011;43675;50.030;21.952;2023-02-28T00:21:37;61.40;;;40.10;;
57846;SDS011;43675;50.030;21.952;2023-02-28T00:24:03;55.80;;;40.20;;
57846;SDS011;43675;50.030;21.952;2023-02-28T00:26:30;53.40;;;39.10;;
57846;SDS011;43675;50.030;21.952;2023-02-28T00:28:57;51.20;;;38.90;;
57846;SDS011;43675;50.030;21.952;2023-02-28T00:31:23;56.40;;;39.00;;
57846;SDS011;43675;50.030;21.952;2023-02-28T00:33:50;51.80;;;40.50;;
57846;SDS011;43675;50.030;21.952;2023-02-28T00:36:16;59.20;;;40.00;;
57846;SDS011;43675;50.030;21.952;2023-02-28T00:38:43;56.90;;;40.20;;
57846;SDS011;43675;50.030;21.952;2023-02-28T00:41:10;58.70;;;40.80;;
57846;SDS011;43675;50.030;21.952;2023-02-28T00:43:38;59.10;;;40.50;;
57846;SDS011;43675;50.030;21.952;2023-02-28T00:46:05;54.50;;;41.60;;
57846;SDS011;43675;50.030;21.952;2023-02-28T00:48:32;52.00;;;39.90;;
57846;SDS011;43675;50.030;21.952;2023-02-28T00:50:59;58.90;;;41.60;;
57846;SDS011;43675;50.030;21.952;2023-02-28T00:53:26;62.90;;;43.00;;
57846;SDS011;43675;50.030;21.952;2023-02-28T00:55:53;64.00;;;45.00;;
57846;SDS011;43675;50.030;21.952;2023-02-28T00:58:20;63.30;;;44.20;;
57846;SDS011;43675;50.030;21.952;2023-02-28T01:00:46;68.60;;;44.20;;
57846;SDS011;43675;50.030;21.952;2023-02-28T01:03:13;61.70;;;43.90;;
57846;SDS011;43675;50.030;21.952;2023-02-28T01:05:40;64.20;;;42.80;;
57846;SDS011;43675;50.030;21.952;2023-02-28T01:08:07;59.90;;;42.10;;
57846;SDS011;43675;50.030;21.952;2023-02-28T01:10:33;59.10;;;42.70;;
57846;SDS011;43675;50.030;21.952;2023-02-28T01:13:00;64.70;;;43.00;;
57846;SDS011;43675;50.030;21.952;2023-02-28T01:15:26;59.10;;;43.00;;
57846;SDS011;43675;50.030;21.952;2023-02-28T01:17:53;63.30;;;42.30;;
57846;SDS011;43675;50.030;21.952;2023-02-28T01:20:19;56.00;;;39.70;;
57846;SDS011;43675;50.030;21.952;2023-02-28T01:22:46;57.40;;;40.40;;
57846;SDS011;43675;50.030;21.952;2023-02-28T01:25:13;56.90;;;40.60;;
57846;SDS011;43675;50.030;21.952;2023-02-28T01:27:39;57.30;;;40.30;;
57846;SDS011;43675;50.030;21.952;2023-02-28T01:30:07;56.00;;;39.20;;
57846;SDS011;43675;50.030;21.952;2023-02-28T01:32:35;53.90;;;40.20;;
57846;SDS011;43675;50.030;21.952;2023-02-28T01:35:02;55.90;;;40.50;;
57846;SDS011;43675;50.030;21.952;2023-02-28T01:37:29;54.60;;;40.80;;
57846;SDS011;43675;50.030;21.952;2023-02-28T01:39:56;55.10;;;39.40;;
57846;SDS011;43675;50.030;21.952;2023-02-28T01:42:23;56.70;;;38.80;;
57846;SDS011;43675;50.030;21.952;2023-02-28T01:47:34;53.50;;;40.30;;
57846;SDS011;43675;50.030;21.952;2023-02-28T01:50:04;55.30;;;41.80;;
57846;SDS011;43675;50.030;21.952;2023-02-28T01:52:35;55.80;;;41.50;;
57846;SDS011;43675;50.030;21.952;2023-02-28T01:55:04;59.70;;;42.20;;
57846;SDS011;43675;50.030;21.952;2023-02-28T01:57:37;61.50;;;42.20;;
57846;SDS011;43675;50.030;21.952;2023-02-28T02:00:09;67.50;;;45.20;;
57846;SDS011;43675;50.030;21.952;2023-02-28T02:02:36;57.00;;;40.00;;
57846;SDS011;43675;50.030;21.952;2023-02-28T02:05:09;60.00;;;41.90;;
57846;SDS011;43675;50.030;21.952;2023-02-28T02:07:38;56.90;;;41.70;;
57846;SDS011;43675;50.030;21.952;2023-02-28T02:10:17;56.90;;;41.40;;
57846;SDS011;43675;50.030;21.952;2023-02-28T02:21:14;68.00;;;45.60;;
57846;SDS011;43675;50.030;21.952;2023-02-28T02:42:56;104.40;;;62.90;;
57846;SDS011;43675;50.030;21.952;2023-02-28T02:48:05;97.60;;;60.90;;
57846;SDS011;43675;50.030;21.952;2023-02-28T02:50:45;98.30;;;60.50;;
57846;SDS011;43675;50.030;21.952;2023-02-28T02:53:21;92.80;;;56.10;;
57846;SDS011;43675;50.030;21.952;2023-02-28T02:55:52;77.90;;;51.80;;
57846;SDS011;43675;50.030;21.952;2023-02-28T02:58:22;73.60;;;49.20;;
57846;SDS011;43675;50.030;21.952;2023-02-28T03:00:54;67.90;;;47.50;;
57846;SDS011;43675;50.030;21.952;2023-02-28T03:03:24;69.30;;;47.20;;
57846;SDS011;43675;50.030;21.952;2023-02-28T03:05:51;68.50;;;45.90;;
57846;SDS011;43675;50.030;21.952;2023-02-28T03:08:17;64.70;;;44.50;;
57846;SDS011;43675;50.030;21.952;2023-02-28T03:10:45;62.20;;;44.90;;
57846;SDS011;43675;50.030;21.952;2023-02-28T03:19:02;68.50;;;46.40;;
57846;SDS011;43675;50.030;21.952;2023-02-28T03:21:36;65.10;;;45.00;;
57846;SDS011;43675;50.030;21.952;2023-02-28T03:26:58;65.40;;;45.90;;
57846;SDS011;43675;50.030;21.952;2023-02-28T03:29:35;65.30;;;44.40;;
57846;SDS011;43675;50.030;21.952;2023-02-28T03:32:08;65.10;;;46.70;;
57846;SDS011;43675;50.030;21.952;2023-02-28T03:34:49;63.80;;;44.40;;
57846;SDS011;43675;50.030;21.952;2023-02-28T03:37:23;60.60;;;43.70;;
57846;SDS011;43675;50.030;21.952;2023-02-28T03:39:54;61.50;;;43.60;;
57846;SDS011;43675;50.030;21.952;2023-02-28T03:42:28;62.60;;;44.00;;
57846;SDS011;43675;50.030;21.952;2023-02-28T03:44:59;62.10;;;44.10;;
57846;SDS011;43675;50.030;21.952;2023-02-28T03:47:35;82.00;;;55.00;;
57846;SDS011;43675;50.030;21.952;2023-02-28T03:52:46;63.70;;;42.30;;
57846;SDS011;43675;50.030;21.952;2023-02-28T03:55:17;57.20;;;40.70;;
57846;SDS011;43675;50.030;21.952;2023-02-28T03:57:53;57.90;;;41.10;;
57846;SDS011;43675;50.030;21.952;2023-02-28T04:00:29;57.40;;;40.90;;
57846;SDS011;43675;50.030;21.952;2023-02-28T04:03:00;49.50;;;37.30;;
57846;SDS011;43675;50.030;21.952;2023-02-28T04:05:27;52.90;;;37.10;;
57846;SDS011;43675;50.030;21.952;2023-02-28T04:08:03;51.40;;;38.20;;
57846;SDS011;43675;50.030;21.952;2023-02-28T04:10:33;57.20;;;40.70;;
57846;SDS011;43675;50.030;21.952;2023-02-28T04:13:00;61.70;;;41.10;;
57846;SDS011;43675;50.030;21.952;2023-02-28T04:15:27;70.70;;;47.60;;
57846;SDS011;43675;50.030;21.952;2023-02-28T04:17:53;69.10;;;45.60;;
57846;SDS011;43675;50.030;21.952;2023-02-28T04:20:20;58.00;;;42.10;;
57846;SDS011;43675;50.030;21.952;2023-02-28T04:22:46;59.50;;;42.20;;
57846;SDS011;43675;50.030;21.952;2023-02-28T04:25:13;65.20;;;42.90;;
57846;SDS011;43675;50.030;21.952;2023-02-28T04:27:40;61.90;;;42.70;;
57846;SDS011;43675;50.030;21.952;2023-02-28T04:30:06;60.70;;;42.80;;
57846;SDS011;43675;50.030;21.952;2023-02-28T04:32:34;59.60;;;42.70;;
57846;SDS011;43675;50.030;21.952;2023-02-28T04:35:00;56.80;;;41.20;;
57846;SDS011;43675;50.030;21.952;2023-02-28T04:37:27;60.90;;;42.10;;
57846;SDS011;43675;50.030;21.952;2023-02-28T04:39:53;62.60;;;44.20;;
57846;SDS011;43675;50.030;21.952;2023-02-28T04:42:20;61.60;;;43.20;;
57846;SDS011;43675;50.030;21.952;2023-02-28T04:44:47;58.80;;;43.20;;
57846;SDS011;43675;50.030;21.952;2023-02-28T04:47:13;55.80;;;40.10;;
57846;SDS011;43675;50.030;21.952;2023-02-28T04:49:40;56.40;;;40.20;;
57846;SDS011;43675;50.030;21.952;2023-02-28T04:52:06;59.70;;;42.90;;
57846;SDS011;43675;50.030;21.952;2023-02-28T04:54:33;58.70;;;41.00;;
57846;SDS011;43675;50.030;21.952;2023-02-28T04:56:59;60.50;;;41.20;;
57846;SDS011;43675;50.030;21.952;2023-02-28T04:59:26;57.40;;;40.00;;
57846;SDS011;43675;50.030;21.952;2023-02-28T05:01:52;53.40;;;36.00;;
57846;SDS011;43675;50.030;21.952;2023-02-28T05:04:19;50.80;;;36.90;;
57846;SDS011;43675;50.030;21.952;2023-02-28T05:06:46;56.30;;;37.40;;
57846;SDS011;43675;50.030;21.952;2023-02-28T05:09:12;61.30;;;40.30;;
57846;SDS011;43675;50.030;21.952;2023-02-28T05:11:39;90.90;;;49.10;;
57846;SDS011;43675;50.030;21.952;2023-02-28T05:14:11;62.10;;;40.80;;
57846;SDS011;43675;50.030;21.952;2023-02-28T05:16:39;57.10;;;38.20;;
57846;SDS011;43675;50.030;21.952;2023-02-28T05:19:06;58.70;;;38.60;;
57846;SDS011;43675;50.030;21.952;2023-02-28T05:21:33;55.30;;;37.70;;
57846;SDS011;43675;50.030;21.952;2023-02-28T05:24:06;59.40;;;39.10;;
57846;SDS011;43675;50.030;21.952;2023-02-28T05:26:37;70.70;;;41.90;;
57846;SDS011;43675;50.030;21.952;2023-02-28T05:29:05;72.40;;;44.40;;
57846;SDS011;43675;50.030;21.952;2023-02-28T05:31:33;73.80;;;47.10;;
57846;SDS011;43675;50.030;21.952;2023-02-28T05:34:00;83.30;;;50.40;;
57846;SDS011;43675;50.030;21.952;2023-02-28T05:36:27;91.70;;;49.80;;
57846;SDS011;43675;50.030;21.952;2023-02-28T05:38:53;75.90;;;45.40;;
57846;SDS011;43675;50.030;21.952;2023-02-28T05:41:20;75.10;;;46.10;;
57846;SDS011;43675;50.030;21.952;2023-02-28T05:43:46;66.60;;;43.50;;
57846;SDS011;43675;50.030;21.952;2023-02-28T05:46:14;60.80;;;39.30;;
57846;SDS011;43675;50.030;21.952;2023-02-28T05:48:41;64.70;;;41.10;;
57846;SDS011;43675;50.030;21.952;2023-02-28T05:51:09;63.50;;;41.50;;
57846;SDS011;43675;50.030;21.952;2023-02-28T05:53:35;67.40;;;44.90;;
57846;SDS011;43675;50.030;21.952;2023-02-28T05:56:03;82.00;;;48.50;;
57846;SDS011;43675;50.030;21.952;2023-02-28T05:58:30;76.70;;;49.40;;
57846;SDS011;43675;50.030;21.952;2023-02-28T06:01:00;109.50;;;59.30;;
57846;SDS011;43675;50.030;21.952;2023-02-28T06:03:46;116.80;;;61.90;;
57846;SDS011;43675;50.030;21.952;2023-02-28T06:06:12;120.60;;;65.80;;
57846;SDS011;43675;50.030;21.952;2023-02-28T06:08:39;116.20;;;63.00;;
57846;SDS011;43675;50.030;21.952;2023-02-28T06:11:06;109.30;;;61.20;;
57846;SDS011;43675;50.030;21.952;2023-02-28T06:13:32;120.50;;;64.70;;
57846;SDS011;43675;50.030;21.952;2023-02-28T06:16:02;111.50;;;60.90;;
57846;SDS011;43675;50.030;21.952;2023-02-28T06:18:28;104.70;;;59.30;;
57846;SDS011;43675;50.030;21.952;2023-02-28T06:20:55;102.00;;;59.10;;
57846;SDS011;43675;50.030;21.952;2023-02-28T06:23:22;102.30;;;59.90;;
57846;SDS011;43675;50.030;21.952;2023-02-28T06:25:49;88.60;;;54.00;;
57846;SDS011;43675;50.030;21.952;2023-02-28T06:28:15;87.90;;;52.70;;
57846;SDS011;43675;50.030;21.952;2023-02-28T06:30:42;96.30;;;56.10;;
57846;SDS011;43675;50.030;21.952;2023-02-28T06:33:09;95.30;;;56.30;;
57846;SDS011;43675;50.030;21.952;2023-02-28T06:35:35;90.40;;;56.80;;
57846;SDS011;43675;50.030;21.952;2023-02-28T06:38:02;87.40;;;55.90;;
57846;SDS011;43675;50.030;21.952;2023-02-28T06:40:28;126.10;;;67.80;;
57846;SDS011;43675;50.030;21.952;2023-02-28T06:42:55;108.40;;;60.00;;
57846;SDS011;43675;50.030;21.952;2023-02-28T06:45:21;114.50;;;65.40;;
57846;SDS011;43675;50.030;21.952;2023-02-28T06:47:48;91.00;;;54.60;;
57846;SDS011;43675;50.030;21.952;2023-02-28T06:50:14;90.60;;;54.50;;
57846;SDS011;43675;50.030;21.952;2023-02-28T06:52:41;94.50;;;56.70;;
57846;SDS011;43675;50.030;21.952;2023-02-28T06:55:08;99.90;;;59.90;;
57846;SDS011;43675;50.030;21.952;2023-02-28T06:57:36;107.80;;;66.70;;
57846;SDS011;43675;50.030;21.952;2023-02-28T07:00:07;128.30;;;73.00;;
57846;SDS011;43675;50.030;21.952;2023-02-28T07:02:35;80.10;;;53.20;;
57846;SDS011;43675;50.030;21.952;2023-02-28T07:05:03;82.10;;;52.10;;
57846;SDS011;43675;50.030;21.952;2023-02-28T07:07:31;80.30;;;50.90;;
57846;SDS011;43675;50.030;21.952;2023-02-28T07:09:58;71.40;;;49.00;;
57846;SDS011;43675;50.030;21.952;2023-02-28T07:12:25;70.70;;;48.30;;
57846;SDS011;43675;50.030;21.952;2023-02-28T07:14:52;80.40;;;49.70;;
57846;SDS011;43675;50.030;21.952;2023-02-28T07:17:18;60.10;;;41.30;;
57846;SDS011;43675;50.030;21.952;2023-02-28T07:19:45;57.30;;;41.60;;
57846;SDS011;43675;50.030;21.952;2023-02-28T07:22:12;59.50;;;42.10;;
57846;SDS011;43675;50.030;21.952;2023-02-28T07:24:38;61.00;;;45.10;;
57846;SDS011;43675;50.030;21.952;2023-02-28T07:27:05;59.30;;;43.00;;
57846;SDS011;43675;50.030;21.952;2023-02-28T07:29:32;56.40;;;40.30;;
57846;SDS011;43675;50.030;21.952;2023-02-28T07:31:58;56.40;;;41.60;;
57846;SDS011;43675;50.030;21.952;2023-02-28T07:34:25;54.90;;;40.50;;
57846;SDS011;43675;50.030;21.952;2023-02-28T07:36:54;48.80;;;35.80;;
57846;SDS011;43675;50.030;21.952;2023-02-28T07:39:21;55.60;;;38.80;;
57846;SDS011;43675;50.030;21.952;2023-02-28T07:41:48;54.70;;;36.50;;
57846;SDS011;43675;50.030;21.952;2023-02-28T07:44:14;51.20;;;37.20;;
57846;SDS011;43675;50.030;21.952;2023-02-28T07:46:41;38.80;;;31.20;;
57846;SDS011;43675;50.030;21.952;2023-02-28T07:49:08;45.10;;;35.00;;
57846;SDS011;43675;50.030;21.952;2023-02-28T07:51:34;47.90;;;34.70;;
57846;SDS011;43675;50.030;21.952;2023-02-28T07:54:01;39.00;;;30.80;;
57846;SDS011;43675;50.030;21.952;2023-02-28T07:56:27;45.60;;;31.50;;
57846;SDS011;43675;50.030;21.952;2023-02-28T07:58:54;42.30;;;30.50;;
57846;SDS011;43675;50.030;21.952;2023-02-28T08:01:20;38.10;;;30.50;;
57846;SDS011;43675;50.030;21.952;2023-02-28T08:03:47;34.20;;;28.60;;
57846;SDS011;43675;50.030;21.952;2023-02-28T08:06:19;34.00;;;27.80;;
57846;SDS011;43675;50.030;21.952;2023-02-28T08:08:47;31.80;;;28.00;;
57846;SDS011;43675;50.030;21.952;2023-02-28T08:11:13;30.70;;;27.40;;
57846;SDS011;43675;50.030;21.952;2023-02-28T08:13:41;36.40;;;29.90;;
57846;SDS011;43675;50.030;21.952;2023-02-28T08:16:08;34.60;;;28.00;;
57846;SDS011;43675;50.030;21.952;2023-02-28T08:18:35;34.50;;;28.10;;
57846;SDS011;43675;50.030;21.952;2023-02-28T08:21:08;31.10;;;27.20;;
57846;SDS011;43675;50.030;21.952;2023-02-28T08:23:35;30.60;;;26.80;;
57846;SDS011;43675;50.030;21.952;2023-02-28T08:26:02;35.10;;;27.50;;
57846;SDS011;43675;50.030;21.952;2023-02-28T08:28:29;36.50;;;27.40;;
57846;SDS011;43675;50.030;21.952;2023-02-28T08:30:56;32.90;;;25.20;;
57846;SDS011;43675;50.030;21.952;2023-02-28T08:33:23;27.70;;;24.20;;
57846;SDS011;43675;50.030;21.952;2023-02-28T08:35:53;30.50;;;25.50;;
57846;SDS011;43675;50.030;21.952;2023-02-28T08:38:21;38.30;;;27.10;;
57846;SDS011;43675;50.030;21.952;2023-02-28T08:40:49;29.00;;;25.20;;
57846;SDS011;43675;50.030;21.952;2023-02-28T08:43:15;37.10;;;27.80;;
57846;SDS011;43675;50.030;21.952;2023-02-28T08:45:42;35.60;;;26.80;;
57846;SDS011;43675;50.030;21.952;2023-02-28T08:48:08;39.10;;;27.80;;
57846;SDS011;43675;50.030;21.952;2023-02-28T08:50:35;33.40;;;26.40;;
57846;SDS011;43675;50.030;21.952;2023-02-28T08:53:02;31.60;;;25.30;;
57846;SDS011;43675;50.030;21.952;2023-02-28T08:55:28;30.20;;;26.00;;
57846;SDS011;43675;50.030;21.952;2023-02-28T08:57:55;31.00;;;26.20;;
57846;SDS011;43675;50.030;21.952;2023-02-28T09:00:21;28.70;;;24.90;;
57846;SDS011;43675;50.030;21.952;2023-02-28T09:02:48;27.40;;;24.00;;
57846;SDS011;43675;50.030;21.952;2023-02-28T09:05:15;29.40;;;23.90;;
57846;SDS011;43675;50.030;21.952;2023-02-28T09:07:42;26.40;;;23.50;;
57846;SDS011;43675;50.030;21.952;2023-02-28T09:10:09;28.20;;;23.90;;
57846;SDS011;43675;50.030;21.952;2023-02-28T09:12:36;27.60;;;24.50;;
57846;SDS011;43675;50.030;21.952;2023-02-28T09:15:02;28.00;;;25.00;;
57846;SDS011;43675;50.030;21.952;2023-02-28T09:17:29;26.50;;;23.60;;
57846;SDS011;43675;50.030;21.952;2023-02-28T09:19:56;26.60;;;23.80;;
57846;SDS011;43675;50.030;21.952;2023-02-28T09:22:23;25.90;;;23.40;;
57846;SDS011;43675;50.030;21.952;2023-02-28T09:24:50;26.30;;;23.40;;
57846;SDS011;43675;50.030;21.952;2023-02-28T09:27:17;24.50;;;21.60;;
57846;SDS011;43675;50.030;21.952;2023-02-28T09:29:43;24.30;;;21.70;;
57846;SDS011;43675;50.030;21.952;2023-02-28T09:32:10;25.10;;;22.60;;
57846;SDS011;43675;50.030;21.952;2023-02-28T09:34:36;25.20;;;22.60;;
57846;SDS011;43675;50.030;21.952;2023-02-28T09:37:03;26.50;;;22.60;;
57846;SDS011;43675;50.030;21.952;2023-02-28T09:39:30;27.00;;;23.60;;
57846;SDS011;43675;50.030;21.952;2023-02-28T09:41:56;26.60;;;23.90;;
57846;SDS011;43675;50.030;21.952;2023-02-28T09:50:15;27.50;;;24.50;;
57846;SDS011;43675;50.030;21.952;2023-02-28T09:52:47;27.20;;;23.30;;
57846;SDS011;43675;50.030;21.952;2023-02-28T09:57:44;25.20;;;22.70;;
57846;SDS011;43675;50.030;21.952;2023-02-28T10:00:18;25.90;;;23.20;;
57846;SDS011;43675;50.030;21.952;2023-02-28T10:05:35;27.60;;;24.00;;
57846;SDS011;43675;50.030;21.952;2023-02-28T10:11:18;26.20;;;23.50;;
57846;SDS011;43675;50.030;21.952;2023-02-28T10:16:20;25.50;;;22.90;;
57846;SDS011;43675;50.030;21.952;2023-02-28T10:18:54;25.40;;;22.80;;
57846;SDS011;43675;50.030;21.952;2023-02-28T10:29:45;25.80;;;23.00;;
57846;SDS011;43675;50.030;21.952;2023-02-28T10:32:15;24.70;;;22.30;;
57846;SDS011;43675;50.030;21.952;2023-02-28T10:34:44;24.90;;;22.50;;
57846;SDS011;43675;50.030;21.952;2023-02-28T10:37:17;24.30;;;21.90;;
57846;SDS011;43675;50.030;21.952;2023-02-28T10:39:46;27.60;;;23.60;;
57846;SDS011;43675;50.030;21.952;2023-02-28T10:44:48;25.10;;;22.40;;
57846;SDS011;43675;50.030;21.952;2023-02-28T10:47:16;26.90;;;23.50;;
57846;SDS011;43675;50.030;21.952;2023-02-28T10:49:47;25.80;;;23.00;;
57846;SDS011;43675;50.030;21.952;2023-02-28T10:52:32;26.20;;;23.10;;
57846;SDS011;43675;50.030;21.952;2023-02-28T10:58:01;26.30;;;23.40;;
57846;SDS011;43675;50.030;21.952;2023-02-28T11:00:31;24.50;;;22.00;;
57846;SDS011;43675;50.030;21.952;2023-02-28T11:03:01;26.90;;;22.90;;
57846;SDS011;43675;50.030;21.952;2023-02-28T11:05:32;24.80;;;22.30;;
57846;SDS011;43675;50.030;21.952;2023-02-28T11:08:06;24.20;;;22.00;;
57846;SDS011;43675;50.030;21.952;2023-02-28T11:10:43;25.70;;;23.10;;
57846;SDS011;43675;50.030;21.952;2023-02-28T11:13:35;25.40;;;22.60;;
57846;SDS011;43675;50.030;21.952;2023-02-28T11:16:06;24.10;;;21.60;;
57846;SDS011;43675;50.030;21.952;2023-02-28T11:19:14;23.40;;;21.20;;
57846;SDS011;43675;50.030;21.952;2023-02-28T11:21:36;24.80;;;22.30;;
57846;SDS011;43675;50.030;21.952;2023-02-28T11:24:04;24.80;;;21.60;;
57846;SDS011;43675;50.030;21.952;2023-02-28T11:26:50;24.80;;;22.10;;
57846;SDS011;43675;50.030;21.952;2023-02-28T11:32:12;23.40;;;21.10;;
57846;SDS011;43675;50.030;21.952;2023-02-28T11:34:42;26.60;;;21.40;;
57846;SDS011;43675;50.030;21.952;2023-02-28T11:37:11;25.90;;;21.90;;
57846;SDS011;43675;50.030;21.952;2023-02-28T11:39:41;23.30;;;20.80;;
57846;SDS011;43675;50.030;21.952;2023-02-28T11:42:31;22.20;;;20.10;;
57846;SDS011;43675;50.030;21.952;2023-02-28T11:51:19;23.00;;;20.50;;
57846;SDS011;43675;50.030;21.952;2023-02-28T11:56:37;23.10;;;20.90;;
57846;SDS011;43675;50.030;21.952;2023-02-28T12:02:31;25.20;;;22.70;;
57846;SDS011;43675;50.030;21.952;2023-02-28T12:15:39;24.00;;;21.60;;
57846;SDS011;43675;50.030;21.952;2023-02-28T12:21:09;25.10;;;21.80;;
57846;SDS011;43675;50.030;21.952;2023-02-28T12:23:48;24.10;;;21.60;;
57846;SDS011;43675;50.030;21.952;2023-02-28T12:26:34;25.30;;;22.40;;
57846;SDS011;43675;50.030;21.952;2023-02-28T12:31:34;26.70;;;24.00;;
57846;SDS011;43675;50.030;21.952;2023-02-28T12:34:06;27.90;;;23.50;;
57846;SDS011;43675;50.030;21.952;2023-02-28T12:36:39;25.20;;;22.60;;
57846;SDS011;43675;50.030;21.952;2023-02-28T12:39:15;25.30;;;22.70;;
57846;SDS011;43675;50.030;21.952;2023-02-28T12:42:03;25.40;;;22.60;;
57846;SDS011;43675;50.030;21.952;2023-02-28T12:44:35;36.80;;;25.30;;
57846;SDS011;43675;50.030;21.952;2023-02-28T12:47:13;30.10;;;24.50;;
57846;SDS011;43675;50.030;21.952;2023-02-28T12:55:27;24.70;;;22.00;;
57846;SDS011;43675;50.030;21.952;2023-02-28T12:58:13;27.70;;;23.20;;
57846;SDS011;43675;50.030;21.952;2023-02-28T13:11:47;25.70;;;23.10;;
57846;SDS011;43675;50.030;21.952;2023-02-28T13:14:29;25.40;;;22.80;;
57846;SDS011;43675;50.030;21.952;2023-02-28T13:22:20;25.20;;;22.50;;
57846;SDS011;43675;50.030;21.952;2023-02-28T13:27:52;26.30;;;22.20;;
57846;SDS011;43675;50.030;21.952;2023-02-28T13:33:26;23.00;;;20.80;;
57846;SDS011;43675;50.030;21.952;2023-02-28T13:38:46;24.30;;;21.90;;
57846;SDS011;43675;50.030;21.952;2023-02-28T13:46:26;22.40;;;20.20;;
57846;SDS011;43675;50.030;21.952;2023-02-28T13:48:53;24.00;;;21.50;;
57846;SDS011;43675;50.030;21.952;2023-02-28T13:51:38;24.30;;;21.70;;
57846;SDS011;43675;50.030;21.952;2023-02-28T13:54:15;25.30;;;22.90;;
57846;SDS011;43675;50.030;21.952;2023-02-28T14:05:15;23.40;;;21.10;;
57846;SDS011;43675;50.030;21.952;2023-02-28T14:07:48;24.50;;;22.00;;
57846;SDS011;43675;50.030;21.952;2023-02-28T14:10:25;24.70;;;22.20;;
57846;SDS011;43675;50.030;21.952;2023-02-28T14:12:57;23.30;;;21.00;;
57846;SDS011;43675;50.030;21.952;2023-02-28T14:18:14;25.00;;;22.30;;
57846;SDS011;43675;50.030;21.952;2023-02-28T14:20:53;24.20;;;21.50;;
57846;SDS011;43675;50.030;21.952;2023-02-28T14:23:26;23.80;;;21.40;;
57846;SDS011;43675;50.030;21.952;2023-02-28T14:31:22;25.90;;;22.40;;
57846;SDS011;43675;50.030;21.952;2023-02-28T14:36:47;29.60;;;23.70;;
57846;SDS011;43675;50.030;21.952;2023-02-28T14:39:20;27.80;;;21.60;;
57846;SDS011;43675;50.030;21.952;2023-02-28T14:41:50;24.40;;;21.80;;
57846;SDS011;43675;50.030;21.952;2023-02-28T14:44:20;23.60;;;21.10;;
57846;SDS011;43675;50.030;21.952;2023-02-28T14:46:53;28.10;;;22.30;;
57846;SDS011;43675;50.030;21.952;2023-02-28T14:49:29;29.50;;;22.70;;
57846;SDS011;43675;50.030;21.952;2023-02-28T14:52:02;24.60;;;22.00;;
57846;SDS011;43675;50.030;21.952;2023-02-28T14:54:32;25.20;;;22.30;;
57846;SDS011;43675;50.030;21.952;2023-02-28T14:56:59;25.90;;;23.10;;
57846;SDS011;43675;50.030;21.952;2023-02-28T14:59:29;24.90;;;22.40;;
57846;SDS011;43675;50.030;21.952;2023-02-28T15:02:13;24.10;;;21.50;;
57846;SDS011;43675;50.030;21.952;2023-02-28T15:04:40;23.90;;;21.20;;
57846;SDS011;43675;50.030;21.952;2023-02-28T15:07:08;23.30;;;20.90;;
57846;SDS011;43675;50.030;21.952;2023-02-28T15:09:41;22.80;;;20.50;;
57846;SDS011;43675;50.030;21.952;2023-02-28T15:12:07;21.90;;;19.90;;
57846;SDS011;43675;50.030;21.952;2023-02-28T15:14:42;23.50;;;20.30;;
57846;SDS011;43675;50.030;21.952;2023-02-28T15:17:11;27.10;;;22.00;;
57846;SDS011;43675;50.030;21.952;2023-02-28T15:19:50;35.90;;;25.50;;
57846;SDS011;43675;50.030;21.952;2023-02-28T15:22:20;38.30;;;27.60;;
57846;SDS011;43675;50.030;21.952;2023-02-28T15:25:02;26.70;;;23.80;;
57846;SDS011;43675;50.030;21.952;2023-02-28T15:27:31;25.90;;;22.80;;
57846;SDS011;43675;50.030;21.952;2023-02-28T15:30:05;32.50;;;23.00;;
57846;SDS011;43675;50.030;21.952;2023-02-28T15:32:36;24.40;;;21.40;;
57846;SDS011;43675;50.030;21.952;2023-02-28T15:35:26;25.50;;;22.00;;
57846;SDS011;43675;50.030;21.952;2023-02-28T15:40:29;23.50;;;21.20;;
57846;SDS011;43675;50.030;21.952;2023-02-28T15:42:59;23.90;;;21.50;;
57846;SDS011;43675;50.030;21.952;2023-02-28T15:45:33;26.00;;;21.90;;
57846;SDS011;43675;50.030;21.952;2023-02-28T15:48:15;26.10;;;22.10;;
57846;SDS011;43675;50.030;21.952;2023-02-28T15:50:49;27.00;;;22.00;;
57846;SDS011;43675;50.030;21.952;2023-02-28T15:53:24;25.30;;;22.60;;
57846;SDS011;43675;50.030;21.952;2023-02-28T15:56:21;26.70;;;24.00;;
57846;SDS011;43675;50.030;21.952;2023-02-28T15:58:48;26.70;;;23.80;;
57846;SDS011;43675;50.030;21.952;2023-02-28T16:01:25;29.00;;;24.90;;
57846;SDS011;43675;50.030;21.952;2023-02-28T16:03:55;28.10;;;24.10;;
57846;SDS011;43675;50.030;21.952;2023-02-28T16:06:29;30.60;;;25.40;;
57846;SDS011;43675;50.030;21.952;2023-02-28T16:09:12;32.60;;;27.30;;
57846;SDS011;43675;50.030;21.952;2023-02-28T16:11:46;34.70;;;26.40;;
57846;SDS011;43675;50.030;21.952;2023-02-28T16:14:16;34.70;;;27.50;;
57846;SDS011;43675;50.030;21.952;2023-02-28T16:16:47;42.20;;;30.30;;
57846;SDS011;43675;50.030;21.952;2023-02-28T16:19:17;51.30;;;35.20;;
57846;SDS011;43675;50.030;21.952;2023-02-28T16:21:44;60.10;;;39.30;;
57846;SDS011;43675;50.030;21.952;2023-02-28T16:24:11;59.20;;;38.10;;
57846;SDS011;43675;50.030;21.952;2023-02-28T16:26:41;54.30;;;35.30;;
57846;SDS011;43675;50.030;21.952;2023-02-28T16:29:27;51.10;;;33.90;;
57846;SDS011;43675;50.030;21.952;2023-02-28T16:31:57;56.30;;;36.00;;
57846;SDS011;43675;50.030;21.952;2023-02-28T16:34:24;51.40;;;32.60;;
57846;SDS011;43675;50.030;21.952;2023-02-28T16:36:51;47.90;;;32.60;;
57846;SDS011;43675;50.030;21.952;2023-02-28T16:39:18;50.60;;;35.60;;
57846;SDS011;43675;50.030;21.952;2023-02-28T16:41:45;338.60;;;146.60;;
57846;SDS011;43675;50.030;21.952;2023-02-28T16:44:26;246.80;;;119.20;;
57846;SDS011;43675;50.030;21.952;2023-02-28T16:46:55;173.70;;;94.10;;
57846;SDS011;43675;50.030;21.952;2023-02-28T16:49:22;129.50;;;75.40;;
57846;SDS011;43675;50.030;21.952;2023-02-28T16:51:48;81.90;;;45.90;;
57846;SDS011;43675;50.030;21.952;2023-02-28T16:54:15;90.00;;;47.50;;
57846;SDS011;43675;50.030;21.952;2023-02-28T16:56:42;107.40;;;53.30;;
57846;SDS011;43675;50.030;21.952;2023-02-28T16:59:12;104.40;;;56.10;;
57846;SDS011;43675;50.030;21.952;2023-02-28T17:01:48;117.10;;;58.70;;
57846;SDS011;43675;50.030;21.952;2023-02-28T17:04:15;137.40;;;62.40;;
57846;SDS011;43675;50.030;21.952;2023-02-28T17:06:42;143.90;;;67.70;;
57846;SDS011;43675;50.030;21.952;2023-02-28T17:09:21;139.00;;;68.10;;